createdAt,value
2023-05-13T00:01:49.993Z,11.20
2023-05-13T00:04:18.768Z,7.88
2023-05-13T00:06:52.179Z,8.48
2023-05-13T00:09:21.474Z,8.75
2023-05-13T00:11:49.733Z,9.55
2023-05-13T00:14:20.394Z,10.32
2023-05-13T00:16:59.559Z,10.25
2023-05-13T00:19:32.747Z,7.72
2023-05-13T00:22:01.285Z,8.75
2023-05-13T00:24:33.690Z,8.35
2023-05-13T00:27:05.048Z,11.80
2023-05-13T00:29:34.746Z,7.30
2023-05-13T00:32:03.887Z,9.68
2023-05-13T00:34:35.349Z,8.00
2023-05-13T00:37:06.630Z,9.35
2023-05-13T00:39:38.123Z,7.55
2023-05-13T00:42:08.070Z,9.15
2023-05-13T00:44:36.788Z,7.13
2023-05-13T00:47:11.820Z,8.30
2023-05-13T00:49:40.612Z,7.25
2023-05-13T00:52:10.099Z,7.47
2023-05-13T00:54:44.576Z,9.75
2023-05-13T00:57:13.733Z,9.10
2023-05-13T00:59:44.494Z,9.30
2023-05-13T01:02:17.742Z,9.38
2023-05-13T01:05:00.991Z,6.55
2023-05-13T01:07:53.315Z,7.35
2023-05-13T01:10:36.780Z,7.63
2023-05-13T01:13:08.314Z,6.10
2023-05-13T01:15:40.755Z,9.15
2023-05-13T01:18:20.789Z,8.38
2023-05-13T01:20:51.899Z,7.18
2023-05-13T01:23:20.378Z,7.00
2023-05-13T01:25:53.388Z,9.15
2023-05-13T01:28:22.918Z,6.85
2023-05-13T01:30:56.235Z,8.45
2023-05-13T01:33:38.329Z,8.20
2023-05-13T01:36:08.204Z,9.68
2023-05-13T01:38:38.453Z,8.35
2023-05-13T01:41:09.574Z,7.50
2023-05-13T01:43:38.674Z,6.95
2023-05-13T01:46:12.748Z,6.28
2023-05-13T01:48:44.126Z,6.95
2023-05-13T01:51:13.794Z,10.93
2023-05-13T01:53:44.497Z,6.43
2023-05-13T01:56:13.307Z,6.88
2023-05-13T01:58:43.942Z,7.25
2023-05-13T02:01:14.572Z,6.45
2023-05-13T02:03:51.272Z,8.65
2023-05-13T02:06:21.428Z,7.43
2023-05-13T02:08:50.376Z,7.85
2023-05-13T02:11:24.269Z,7.50
2023-05-13T02:13:52.629Z,9.60
2023-05-13T02:16:22.964Z,6.63
2023-05-13T02:18:52.793Z,10.07
2023-05-13T02:21:31.980Z,7.28
2023-05-13T02:24:01.582Z,7.18
2023-05-13T02:26:32.662Z,9.55
2023-05-13T02:29:02.268Z,9.52
2023-05-13T02:31:33.467Z,11.23
2023-05-13T02:34:04.949Z,6.93
2023-05-13T02:36:33.539Z,8.10
2023-05-13T02:39:02.696Z,14.65
2023-05-13T02:41:36.105Z,8.10
2023-05-13T02:44:04.631Z,8.88
2023-05-13T02:46:36.895Z,9.13
2023-05-13T02:49:06.337Z,7.03
2023-05-13T02:51:41.971Z,8.50
2023-05-13T02:54:10.723Z,7.63
2023-05-13T02:56:44.430Z,7.03
2023-05-13T02:59:13.277Z,9.73
2023-05-13T03:01:41.636Z,9.77
2023-05-13T03:04:11.390Z,10.60
2023-05-13T03:06:42.661Z,11.15
2023-05-13T03:09:11.728Z,10.80
2023-05-13T03:11:40.354Z,8.95
2023-05-13T03:14:08.745Z,8.90
2023-05-13T03:16:38.456Z,8.35
2023-05-13T03:19:07.792Z,9.02
2023-05-13T03:21:36.886Z,14.50
2023-05-13T03:24:07.860Z,9.95
2023-05-13T03:26:39.933Z,10.15
2023-05-13T03:29:09.711Z,7.75
2023-05-13T03:31:50.103Z,9.45
2023-05-13T03:34:22.077Z,8.25
2023-05-13T03:36:51.292Z,9.70
2023-05-13T03:39:26.195Z,10.35
2023-05-13T03:42:05.690Z,6.90
2023-05-13T03:44:38.930Z,9.40
2023-05-13T03:47:07.459Z,7.85
2023-05-13T03:49:39.883Z,10.75
2023-05-13T03:52:09.687Z,10.20
2023-05-13T03:54:41.733Z,8.40
2023-05-13T03:57:10.984Z,9.57
2023-05-13T03:59:42.784Z,17.70
2023-05-13T04:02:11.437Z,10.38
2023-05-13T04:04:42.610Z,8.80
2023-05-13T04:07:13.553Z,11.32
2023-05-13T04:09:46.607Z,10.37
2023-05-13T04:12:18.107Z,10.18
2023-05-13T04:14:49.165Z,8.95
2023-05-13T04:17:17.556Z,10.25
2023-05-13T04:19:47.145Z,9.68
2023-05-13T04:22:16.489Z,9.98
2023-05-13T04:24:51.929Z,9.23
2023-05-13T04:27:20.412Z,7.88
2023-05-13T04:29:53.208Z,10.05
2023-05-13T04:32:23.008Z,7.72
2023-05-13T04:34:55.812Z,7.95
2023-05-13T04:37:27.445Z,10.75
2023-05-13T04:39:59.241Z,10.68
2023-05-13T04:42:28.073Z,8.55
2023-05-13T04:44:59.641Z,11.15
2023-05-13T04:47:29.166Z,8.48
2023-05-13T04:49:58.928Z,8.88
2023-05-13T04:52:29.119Z,9.00
2023-05-13T04:54:58.433Z,7.93
2023-05-13T04:57:27.404Z,8.27
2023-05-13T04:59:56.318Z,8.32
2023-05-13T05:02:24.851Z,7.70
2023-05-13T05:04:55.866Z,6.97
2023-05-13T05:07:25.715Z,8.35
2023-05-13T05:09:57.527Z,10.02
2023-05-13T05:12:27.038Z,7.45
2023-05-13T05:14:58.553Z,9.15
2023-05-13T05:17:27.861Z,8.63
2023-05-13T05:19:57.341Z,9.10
2023-05-13T05:22:27.218Z,10.57
2023-05-13T05:24:56.111Z,7.95
2023-05-13T05:27:25.890Z,7.47
2023-05-13T05:29:54.162Z,8.20
2023-05-13T05:32:23.346Z,10.43
2023-05-13T05:34:52.979Z,9.23
2023-05-13T05:37:22.298Z,9.38
2023-05-13T05:39:52.870Z,8.15
2023-05-13T05:42:21.761Z,10.50
2023-05-13T05:44:50.299Z,7.75
2023-05-13T05:47:19.797Z,6.95
2023-05-13T05:49:48.038Z,9.60
2023-05-13T05:52:22.000Z,7.60
2023-05-13T05:54:54.094Z,8.23
2023-05-13T05:57:25.013Z,7.28
2023-05-13T05:59:56.907Z,7.82
2023-05-13T06:02:31.417Z,10.25
2023-05-13T06:05:01.268Z,8.00
2023-05-13T06:07:34.726Z,8.55
2023-05-13T06:10:08.475Z,6.95
2023-05-13T06:12:51.131Z,7.40
2023-05-13T06:15:19.899Z,7.30
2023-05-13T06:18:07.011Z,11.48
2023-05-13T06:20:42.942Z,11.30
2023-05-13T06:23:11.701Z,8.95
2023-05-13T06:25:41.703Z,7.95
2023-05-13T06:28:12.437Z,6.80
2023-05-13T06:30:46.006Z,12.00
2023-05-13T06:33:18.690Z,10.27
2023-05-13T06:35:49.800Z,7.07
2023-05-13T06:38:21.689Z,6.60
2023-05-13T06:40:54.416Z,10.18
2023-05-13T06:43:32.260Z,7.85
2023-05-13T06:46:10.746Z,7.60
2023-05-13T06:48:39.313Z,7.25
2023-05-13T06:51:10.562Z,6.07
2023-05-13T06:53:39.060Z,6.75
2023-05-13T06:56:08.092Z,9.57
2023-05-13T06:58:37.003Z,8.25
2023-05-13T07:01:05.445Z,9.55
2023-05-13T07:03:35.400Z,6.45
2023-05-13T07:06:05.021Z,5.25
2023-05-13T07:08:33.898Z,6.22
2023-05-13T07:11:02.329Z,6.28
2023-05-13T07:13:34.988Z,5.50
2023-05-13T07:16:04.298Z,6.00
2023-05-13T07:18:37.444Z,7.90
2023-05-13T07:21:06.527Z,12.35
2023-05-13T07:23:37.591Z,5.68
2023-05-13T07:26:06.564Z,6.07
2023-05-13T07:28:36.305Z,6.07
2023-05-13T07:31:08.226Z,6.85
2023-05-13T07:33:49.834Z,6.93
2023-05-13T07:36:22.381Z,8.10
2023-05-13T07:38:54.838Z,5.93
2023-05-13T07:41:31.710Z,8.05
2023-05-13T07:44:03.207Z,6.72
2023-05-13T07:46:37.477Z,5.78
2023-05-13T07:49:13.258Z,6.97
2023-05-13T07:51:47.634Z,9.68
2023-05-13T07:54:16.422Z,6.00
2023-05-13T07:56:52.687Z,6.85
2023-05-13T07:59:21.289Z,6.20
2023-05-13T08:01:50.607Z,7.60
2023-05-13T08:04:22.107Z,7.20
2023-05-13T08:06:53.519Z,6.45
2023-05-13T08:09:25.359Z,6.85
2023-05-13T08:11:55.826Z,5.70
2023-05-13T08:14:28.458Z,7.88
2023-05-13T08:16:57.266Z,7.57
2023-05-13T08:19:25.779Z,7.30
2023-05-13T08:21:56.870Z,6.38
2023-05-13T08:24:25.288Z,6.20
2023-05-13T08:26:56.668Z,7.25
2023-05-13T08:29:27.696Z,5.85
2023-05-13T08:31:58.831Z,7.50
2023-05-13T08:34:28.581Z,6.03
2023-05-13T08:36:57.118Z,5.43
2023-05-13T08:39:31.107Z,5.10
2023-05-13T08:42:00.152Z,5.30
2023-05-13T08:44:37.234Z,6.40
2023-05-13T08:47:20.947Z,4.10
2023-05-13T08:49:49.704Z,6.57
2023-05-13T08:52:19.815Z,5.55
2023-05-13T08:54:48.777Z,11.00
2023-05-13T08:57:17.977Z,6.00
2023-05-13T08:59:48.500Z,6.53
2023-05-13T09:02:17.534Z,4.57
2023-05-13T09:04:53.705Z,3.65
2023-05-13T09:07:24.324Z,5.03
2023-05-13T09:09:53.647Z,3.20
2023-05-13T09:12:41.545Z,3.13
2023-05-13T09:15:14.515Z,6.68
2023-05-13T09:17:56.345Z,3.17
2023-05-13T09:20:26.692Z,3.00
2023-05-13T09:22:57.375Z,3.40
2023-05-13T09:25:27.459Z,3.75
2023-05-13T09:27:58.733Z,4.53
2023-05-13T09:30:52.057Z,3.83
2023-05-13T09:33:30.496Z,5.63
2023-05-13T09:35:59.123Z,3.95
2023-05-13T09:38:29.080Z,3.25
2023-05-13T09:40:59.014Z,3.35
2023-05-13T09:43:32.523Z,3.20
2023-05-13T09:46:05.667Z,2.58
2023-05-13T09:48:38.027Z,2.85
2023-05-13T09:51:06.544Z,3.17
2023-05-13T09:53:35.996Z,3.72
2023-05-13T09:56:10.756Z,2.40
2023-05-13T09:58:39.287Z,2.50
2023-05-13T10:01:08.185Z,3.00
2023-05-13T10:03:43.473Z,3.13
2023-05-13T10:06:18.637Z,2.60
2023-05-13T10:08:52.274Z,2.58
2023-05-13T10:11:21.493Z,2.42
2023-05-13T10:14:10.338Z,2.40
2023-05-13T10:16:39.346Z,6.82
2023-05-13T10:19:11.224Z,2.90
2023-05-13T10:21:39.662Z,2.42
2023-05-13T10:24:11.462Z,5.75
2023-05-13T10:26:41.675Z,2.33
2023-05-13T10:29:11.466Z,2.15
2023-05-13T10:31:40.756Z,2.80
2023-05-13T10:34:11.668Z,3.20
2023-05-13T10:36:41.905Z,5.05
2023-05-13T10:39:20.377Z,2.20
2023-05-13T10:42:16.580Z,3.45
2023-05-13T10:44:44.476Z,2.33
2023-05-13T10:47:12.984Z,2.17
2023-05-13T10:49:51.006Z,1.83
2023-05-13T10:52:19.959Z,3.83
2023-05-13T10:55:03.605Z,2.63
2023-05-13T10:57:38.456Z,3.38
2023-05-13T11:00:13.394Z,3.10
2023-05-13T11:02:58.835Z,2.25
2023-05-13T11:05:28.889Z,1.87
2023-05-13T11:08:00.374Z,2.17
2023-05-13T11:10:33.370Z,3.97
2023-05-13T11:13:07.822Z,3.22
2023-05-13T11:18:04.020Z,2.20
2023-05-13T11:20:48.648Z,2.42
2023-05-13T11:23:23.156Z,1.92
2023-05-13T11:26:12.538Z,6.15
2023-05-13T11:28:53.832Z,4.15
2023-05-13T11:31:22.804Z,1.95
2023-05-13T11:34:09.641Z,1.80
2023-05-13T11:36:41.673Z,1.98
2023-05-13T11:39:14.467Z,1.60
2023-05-13T11:41:44.436Z,2.20
2023-05-13T11:44:14.010Z,2.25
2023-05-13T11:46:52.699Z,1.88
2023-05-13T11:49:34.259Z,3.63
2023-05-13T11:52:03.658Z,1.63
2023-05-13T11:54:32.372Z,3.05
2023-05-13T11:57:03.604Z,1.52
2023-05-13T11:59:41.682Z,6.20
2023-05-13T12:02:16.793Z,1.70
2023-05-13T12:04:45.805Z,2.63
2023-05-13T12:07:14.132Z,1.90
2023-05-13T12:09:47.636Z,2.72
2023-05-13T12:12:17.563Z,1.83
2023-05-13T12:14:50.166Z,2.95
2023-05-13T12:17:22.688Z,2.35
2023-05-13T12:20:07.168Z,2.00
2023-05-13T12:22:44.939Z,1.95
2023-05-13T12:25:31.999Z,1.40
2023-05-13T12:28:00.740Z,2.47
2023-05-13T12:30:34.522Z,2.10
2023-05-13T12:33:14.768Z,1.85
2023-05-13T12:35:43.782Z,1.70
2023-05-13T12:38:15.524Z,1.52
2023-05-13T12:40:46.664Z,1.93
2023-05-13T12:43:15.662Z,1.70
2023-05-13T12:45:48.351Z,2.00
2023-05-13T12:48:16.806Z,1.40
2023-05-13T12:50:45.060Z,1.95
2023-05-13T12:53:15.945Z,1.45
2023-05-13T12:58:18.724Z,3.05
2023-05-13T13:00:49.683Z,1.52
2023-05-13T13:03:34.618Z,2.20
2023-05-13T13:06:05.969Z,1.80
2023-05-13T13:11:06.226Z,1.45
2023-05-13T13:13:39.091Z,1.75
2023-05-13T13:16:09.141Z,1.73
2023-05-13T13:18:40.959Z,2.08
2023-05-13T13:21:09.470Z,1.58
2023-05-13T13:23:39.852Z,6.70
2023-05-13T13:26:11.311Z,1.85
2023-05-13T13:28:40.279Z,5.80
2023-05-13T13:31:11.746Z,1.65
2023-05-13T13:33:41.912Z,1.55
2023-05-13T13:36:12.832Z,3.15
2023-05-13T13:38:43.512Z,1.92
2023-05-13T13:41:12.318Z,3.30
2023-05-13T13:43:47.231Z,1.70
2023-05-13T13:46:16.626Z,2.13
2023-05-13T13:48:45.174Z,1.88
2023-05-13T13:51:14.508Z,1.45
2023-05-13T13:53:43.083Z,4.43
2023-05-13T13:56:11.312Z,3.78
2023-05-13T13:58:42.628Z,1.58
2023-05-13T14:01:11.093Z,1.80
2023-05-13T14:03:41.481Z,3.72
2023-05-13T14:06:11.072Z,1.55
2023-05-13T14:08:39.559Z,3.25
2023-05-13T14:11:08.127Z,2.15
2023-05-13T14:13:39.755Z,1.58
2023-05-13T14:16:11.088Z,2.03
2023-05-13T14:18:39.549Z,1.27
2023-05-13T14:21:08.909Z,1.67
2023-05-13T14:23:37.461Z,1.40
2023-05-13T14:26:07.310Z,3.05
2023-05-13T14:28:36.422Z,1.88
2023-05-13T14:31:05.359Z,1.95
2023-05-13T14:33:35.428Z,1.63
2023-05-13T14:36:07.683Z,1.35
2023-05-13T14:38:39.833Z,1.25
2023-05-13T14:41:10.965Z,1.50
2023-05-13T14:43:40.408Z,1.75
2023-05-13T14:46:11.725Z,6.57
2023-05-13T14:48:42.385Z,1.60
2023-05-13T14:51:12.316Z,1.60
2023-05-13T14:53:44.319Z,4.70
2023-05-13T14:56:12.595Z,2.00
2023-05-13T14:58:43.032Z,1.65
2023-05-13T15:01:11.574Z,1.67
2023-05-13T15:03:46.457Z,1.67
2023-05-13T15:06:17.488Z,1.92
2023-05-13T15:08:46.220Z,2.00
2023-05-13T15:11:14.505Z,1.63
2023-05-13T15:13:44.162Z,1.85
2023-05-13T15:16:12.652Z,1.70
2023-05-13T15:18:47.226Z,1.80
2023-05-13T15:21:19.400Z,1.50
2023-05-13T15:23:49.475Z,1.30
2023-05-13T15:26:22.277Z,2.55
2023-05-13T15:28:50.609Z,3.13
2023-05-13T15:31:18.997Z,2.95
2023-05-13T15:33:55.493Z,1.60
2023-05-13T15:36:23.778Z,1.70
2023-05-13T15:38:55.232Z,2.10
2023-05-13T15:41:26.712Z,2.33
2023-05-13T15:43:57.228Z,1.92
2023-05-13T15:46:26.360Z,1.73
2023-05-13T15:48:57.355Z,2.20
2023-05-13T15:51:25.940Z,1.90
2023-05-13T15:53:54.336Z,1.90
2023-05-13T15:56:25.064Z,1.60
2023-05-13T15:58:56.023Z,2.45
2023-05-13T16:01:27.789Z,2.28
2023-05-13T16:04:05.293Z,1.85
2023-05-13T16:06:35.276Z,1.92
2023-05-13T16:09:04.363Z,7.20
2023-05-13T16:11:37.526Z,2.20
2023-05-13T16:14:08.645Z,2.03
2023-05-13T16:16:38.396Z,1.83
2023-05-13T16:19:10.412Z,2.70
2023-05-13T16:21:41.364Z,2.60
2023-05-13T16:24:11.648Z,3.22
2023-05-13T16:26:40.620Z,2.65
2023-05-13T16:29:12.530Z,2.10
2023-05-13T16:31:41.389Z,2.40
2023-05-13T16:34:11.230Z,2.25
2023-05-13T16:36:39.650Z,2.10
2023-05-13T16:39:08.027Z,2.92
2023-05-13T16:41:39.238Z,1.85
2023-05-13T16:44:11.206Z,3.42
2023-05-13T16:46:40.151Z,1.70
2023-05-13T16:49:08.548Z,2.53
2023-05-13T16:51:37.109Z,1.98
2023-05-13T16:54:07.120Z,1.50
2023-05-13T16:56:35.423Z,1.30
2023-05-13T16:59:05.371Z,2.75
2023-05-13T17:01:37.747Z,2.80
2023-05-13T17:04:06.004Z,1.98
2023-05-13T17:06:39.281Z,3.10
2023-05-13T17:09:09.020Z,2.70
2023-05-13T17:11:37.894Z,2.10
2023-05-13T17:14:06.799Z,1.80
2023-05-13T17:16:36.738Z,1.92
2023-05-13T17:19:07.894Z,4.50
2023-05-13T17:21:37.242Z,1.80
2023-05-13T17:24:07.040Z,1.65
2023-05-13T17:26:38.775Z,2.03
2023-05-13T17:29:07.800Z,1.77
2023-05-13T17:31:39.443Z,2.20
2023-05-13T17:34:07.907Z,4.72
2023-05-13T17:36:37.948Z,2.53
2023-05-13T17:39:07.315Z,3.63
2023-05-13T17:41:37.634Z,3.15
2023-05-13T17:44:07.064Z,2.53
2023-05-13T17:46:38.646Z,2.25
2023-05-13T17:49:07.824Z,4.43
2023-05-13T17:51:36.107Z,3.40
2023-05-13T17:54:04.528Z,3.05
2023-05-13T17:56:34.686Z,2.42
2023-05-13T17:59:05.434Z,4.38
2023-05-13T18:01:34.871Z,3.72
2023-05-13T18:04:06.190Z,6.05
2023-05-13T18:06:36.082Z,2.05
2023-05-13T18:09:04.791Z,2.08
2023-05-13T18:11:36.884Z,1.90
2023-05-13T18:14:06.813Z,4.55
2023-05-13T18:16:36.222Z,2.22
2023-05-13T18:19:07.114Z,2.58
2023-05-13T18:21:38.103Z,3.53
2023-05-13T18:24:06.652Z,3.65
2023-05-13T18:26:35.191Z,2.00
2023-05-13T18:29:08.481Z,2.38
2023-05-13T18:31:39.226Z,2.90
2023-05-13T18:34:11.149Z,3.08
2023-05-13T18:36:42.950Z,2.28
2023-05-13T18:39:11.455Z,2.65
2023-05-13T18:41:49.917Z,3.03
2023-05-13T18:44:19.022Z,3.75
2023-05-13T18:46:47.934Z,2.08
2023-05-13T18:49:20.565Z,2.50
2023-05-13T18:51:48.960Z,2.30
2023-05-13T18:54:21.257Z,2.72
2023-05-13T18:56:49.626Z,2.63
2023-05-13T18:59:18.650Z,2.67
2023-05-13T19:01:47.224Z,4.05
2023-05-13T19:04:21.498Z,2.60
2023-05-13T19:06:52.190Z,3.15
2023-05-13T19:09:22.568Z,5.55
2023-05-13T19:11:51.043Z,4.97
2023-05-13T19:14:23.061Z,8.45
2023-05-13T19:16:52.517Z,3.90
2023-05-13T19:19:21.378Z,3.35
2023-05-13T19:21:49.907Z,3.20
2023-05-13T19:24:21.992Z,2.92
2023-05-13T19:26:50.855Z,5.88
2023-05-13T19:29:19.953Z,4.90
2023-05-13T19:31:50.895Z,3.80
2023-05-13T19:34:25.284Z,3.30
2023-05-13T19:36:56.544Z,3.88
2023-05-13T19:39:26.058Z,4.90
2023-05-13T19:41:55.290Z,3.15
2023-05-13T19:44:28.051Z,3.65
2023-05-13T19:46:58.873Z,4.65
2023-05-13T19:49:31.651Z,3.42
2023-05-13T19:51:59.877Z,3.83
2023-05-13T19:54:28.720Z,3.97
2023-05-13T19:56:57.696Z,3.70
2023-05-13T19:59:29.980Z,3.55
2023-05-13T20:01:58.312Z,4.45
2023-05-13T20:04:28.647Z,3.55
2023-05-13T20:06:57.060Z,3.00
2023-05-13T20:09:28.193Z,3.80
2023-05-13T20:11:57.933Z,4.88
2023-05-13T20:14:42.111Z,5.70
2023-05-13T20:17:11.365Z,3.38
2023-05-13T20:19:42.488Z,3.42
2023-05-13T20:22:10.930Z,3.92
2023-05-13T20:24:39.153Z,4.90
2023-05-13T20:27:08.084Z,3.60
2023-05-13T20:29:39.211Z,4.00
2023-05-13T20:32:07.963Z,3.65
2023-05-13T20:34:37.354Z,3.85
2023-05-13T20:37:06.165Z,4.50
2023-05-13T20:39:35.544Z,4.20
2023-05-13T20:42:04.000Z,4.32
2023-05-13T20:44:42.171Z,4.07
2023-05-13T20:47:11.611Z,9.73
2023-05-13T20:49:43.705Z,3.72
2023-05-13T20:52:12.470Z,5.80
2023-05-13T20:54:41.595Z,3.22
2023-05-13T20:57:10.039Z,4.88
2023-05-13T20:59:40.007Z,4.03
2023-05-13T21:02:10.915Z,4.60
2023-05-13T21:04:39.734Z,3.67
2023-05-13T21:07:08.350Z,5.45
2023-05-13T21:09:37.138Z,3.88
2023-05-13T21:12:05.602Z,3.40
2023-05-13T21:14:36.825Z,3.95
2023-05-13T21:17:07.966Z,4.78
2023-05-13T21:19:36.697Z,4.18
2023-05-13T21:22:05.840Z,4.70
2023-05-13T21:24:35.227Z,4.20
2023-05-13T21:27:06.276Z,6.68
2023-05-13T21:29:34.961Z,4.47
2023-05-13T21:32:03.345Z,6.13
2023-05-13T21:34:33.970Z,3.80
2023-05-13T21:37:02.355Z,4.00
2023-05-13T21:39:33.603Z,6.75
2023-05-13T21:42:04.421Z,4.38
2023-05-13T21:44:35.908Z,4.82
2023-05-13T21:47:05.358Z,3.33
2023-05-13T21:49:34.353Z,4.00
2023-05-13T21:52:04.007Z,4.88
2023-05-13T21:54:35.411Z,4.68
2023-05-13T21:57:03.731Z,4.88
2023-05-13T21:59:36.949Z,4.00
2023-05-13T22:02:05.757Z,5.78
2023-05-13T22:04:38.089Z,4.13
2023-05-13T22:07:06.726Z,5.55
2023-05-13T22:09:35.693Z,5.47
2023-05-13T22:12:04.520Z,3.95
2023-05-13T22:14:38.032Z,4.65
2023-05-13T22:17:09.613Z,5.30
2023-05-13T22:19:38.632Z,4.10
2023-05-13T22:22:06.935Z,3.75
2023-05-13T22:24:38.162Z,4.90
2023-05-13T22:27:07.007Z,4.20
2023-05-13T22:29:38.985Z,4.35
2023-05-13T22:32:10.806Z,4.15
2023-05-13T22:34:40.165Z,4.05
2023-05-13T22:37:11.151Z,4.80
2023-05-13T22:39:39.869Z,5.35
2023-05-13T22:42:08.799Z,6.15
2023-05-13T22:44:41.785Z,7.82
2023-05-13T22:47:10.572Z,4.30
2023-05-13T22:49:44.578Z,5.00
2023-05-13T22:52:16.675Z,4.85
2023-05-13T22:54:45.020Z,4.35
2023-05-13T22:57:13.373Z,4.20
2023-05-13T22:59:46.445Z,4.83
2023-05-13T23:02:14.860Z,4.53
2023-05-13T23:04:45.884Z,5.15
2023-05-13T23:07:15.006Z,4.90
2023-05-13T23:09:49.224Z,5.13
2023-05-13T23:12:18.185Z,5.20
2023-05-13T23:14:52.482Z,7.00
2023-05-13T23:17:23.334Z,6.07
2023-05-13T23:19:51.947Z,4.85
2023-05-13T23:22:20.790Z,5.53
2023-05-13T23:24:51.080Z,5.75
2023-05-13T23:27:19.940Z,6.57
2023-05-13T23:29:48.284Z,5.00
2023-05-13T23:32:17.037Z,10.75
2023-05-13T23:34:45.488Z,6.88
2023-05-13T23:37:19.153Z,5.95
2023-05-13T23:39:52.515Z,5.13
2023-05-13T23:42:21.649Z,7.20
2023-05-13T23:44:51.040Z,7.78
2023-05-13T23:47:20.876Z,6.60
2023-05-13T23:49:51.855Z,5.57
2023-05-13T23:52:20.434Z,7.72
2023-05-13T23:54:48.692Z,9.18
2023-05-13T23:57:18.194Z,8.13
2023-05-13T23:59:46.384Z,4.85
